createdAt,value
2023-04-11T00:01:49.820Z,37.05
2023-04-11T00:04:17.473Z,24.42
2023-04-11T00:06:44.431Z,43.80
2023-04-11T00:09:12.078Z,30.55
2023-04-11T00:11:39.084Z,42.75
2023-04-11T00:14:07.604Z,45.05
2023-04-11T00:16:34.955Z,45.40
2023-04-11T00:19:01.824Z,55.05
2023-04-11T00:21:30.685Z,42.22
2023-04-11T00:23:57.661Z,48.80
2023-04-11T00:26:24.600Z,57.90
2023-04-11T00:28:52.167Z,39.80
2023-04-11T00:31:19.409Z,49.25
2023-04-11T00:33:51.670Z,40.05
2023-04-11T00:36:18.581Z,40.75
2023-04-11T00:38:46.524Z,58.60
2023-04-11T00:41:13.829Z,41.88
2023-04-11T00:43:40.853Z,50.35
2023-04-11T00:46:09.506Z,55.58
2023-04-11T00:48:36.847Z,41.88
2023-04-11T00:51:04.111Z,40.30
2023-04-11T00:53:32.920Z,57.75
2023-04-11T00:56:00.642Z,44.10
2023-04-11T00:58:28.376Z,58.83
2023-04-11T01:00:56.581Z,44.40
2023-04-11T01:03:24.937Z,52.45
2023-04-11T01:05:53.857Z,41.58
2023-04-11T01:08:22.452Z,44.97
2023-04-11T01:10:50.848Z,35.30
2023-04-11T01:13:18.047Z,43.50
2023-04-11T01:15:44.950Z,43.95
2023-04-11T01:18:11.872Z,29.63
2023-04-11T01:20:38.703Z,22.85
2023-04-11T01:23:08.820Z,33.13
2023-04-11T01:25:35.860Z,29.40
2023-04-11T01:28:03.237Z,26.35
2023-04-11T01:30:30.136Z,28.08
2023-04-11T01:32:57.230Z,26.27
2023-04-11T01:35:24.012Z,14.43
2023-04-11T01:37:52.337Z,19.98
2023-04-11T01:40:23.847Z,16.15
2023-04-11T01:45:18.846Z,14.90
2023-04-11T01:50:14.313Z,16.48
2023-04-11T01:52:43.803Z,15.73
2023-04-11T01:55:10.807Z,20.65
2023-04-11T01:57:38.823Z,13.48
2023-04-11T02:00:12.320Z,8.70
2023-04-11T02:02:39.465Z,15.70
2023-04-11T02:05:06.712Z,14.32
2023-04-11T02:07:33.914Z,8.18
2023-04-11T02:10:01.147Z,17.25
2023-04-11T02:12:29.376Z,12.48
2023-04-11T02:14:56.211Z,18.13
2023-04-11T02:17:25.886Z,16.30
2023-04-11T02:19:54.048Z,16.92
2023-04-11T02:22:21.804Z,18.65
2023-04-11T02:24:48.873Z,10.70
2023-04-11T02:27:15.778Z,11.00
2023-04-11T02:29:42.724Z,11.13
2023-04-11T02:32:09.880Z,15.93
2023-04-11T02:34:36.911Z,15.90
2023-04-11T02:37:04.367Z,17.38
2023-04-11T02:39:31.755Z,16.27
2023-04-11T02:41:58.543Z,9.98
2023-04-11T02:44:26.426Z,22.27
2023-04-11T02:46:53.434Z,14.25
2023-04-11T02:49:20.440Z,13.02
2023-04-11T02:51:48.044Z,10.40
2023-04-11T02:54:15.785Z,14.18
2023-04-11T02:56:43.611Z,16.63
2023-04-11T02:59:10.680Z,11.63
2023-04-11T03:01:38.925Z,10.02
2023-04-11T03:04:07.474Z,9.82
2023-04-11T03:06:34.479Z,11.90
2023-04-11T03:09:02.514Z,11.02
2023-04-11T03:11:29.285Z,15.82
2023-04-11T03:13:56.377Z,14.43
2023-04-11T03:16:23.410Z,8.55
2023-04-11T03:18:50.287Z,11.77
2023-04-11T03:21:17.245Z,15.60
2023-04-11T03:23:45.442Z,16.90
2023-04-11T03:26:13.256Z,12.13
2023-04-11T03:28:40.701Z,22.13
2023-04-11T03:31:07.949Z,17.80
2023-04-11T03:33:34.860Z,14.35
2023-04-11T03:36:01.759Z,14.15
2023-04-11T03:38:29.354Z,15.75
2023-04-11T03:40:56.506Z,17.95
2023-04-11T03:43:23.492Z,14.45
2023-04-11T03:45:51.919Z,13.85
2023-04-11T03:48:20.113Z,10.48
2023-04-11T03:50:47.562Z,16.15
2023-04-11T03:53:14.425Z,17.33
2023-04-11T03:55:41.348Z,10.98
2023-04-11T03:58:08.282Z,10.45
2023-04-11T04:00:35.331Z,12.60
2023-04-11T04:03:02.405Z,13.75
2023-04-11T04:05:29.514Z,11.43
2023-04-11T04:07:56.445Z,10.55
2023-04-11T04:10:23.353Z,12.60
2023-04-11T04:12:50.408Z,23.23
2023-04-11T04:15:17.488Z,15.60
2023-04-11T04:17:44.591Z,13.18
2023-04-11T04:20:11.941Z,13.85
2023-04-11T04:22:38.909Z,7.78
2023-04-11T04:25:06.448Z,17.17
2023-04-11T04:27:33.639Z,16.38
2023-04-11T04:30:02.881Z,17.17
2023-04-11T04:32:31.509Z,18.88
2023-04-11T04:34:59.031Z,18.85
2023-04-11T04:37:27.151Z,21.30
2023-04-11T04:39:55.791Z,15.35
2023-04-11T04:42:23.630Z,13.05
2023-04-11T04:44:51.780Z,21.15
2023-04-11T04:47:21.560Z,15.23
2023-04-11T04:49:48.314Z,15.10
2023-04-11T04:52:15.991Z,8.13
2023-04-11T04:54:43.098Z,17.55
2023-04-11T04:57:09.917Z,12.15
2023-04-11T04:59:36.757Z,8.70
2023-04-11T05:02:03.875Z,10.57
2023-04-11T05:04:32.067Z,12.65
2023-04-11T05:06:59.629Z,6.70
2023-04-11T05:09:26.646Z,13.65
2023-04-11T05:11:53.694Z,15.70
2023-04-11T05:14:20.723Z,10.07
2023-04-11T05:16:47.622Z,8.05
2023-04-11T05:19:14.589Z,11.32
2023-04-11T05:21:41.542Z,9.38
2023-04-11T05:24:08.383Z,11.30
2023-04-11T05:26:35.255Z,8.40
2023-04-11T05:29:02.079Z,16.63
2023-04-11T05:31:29.110Z,13.35
2023-04-11T05:33:58.041Z,13.80
2023-04-11T05:36:25.806Z,13.75
2023-04-11T05:38:54.311Z,12.93
2023-04-11T05:41:21.427Z,16.33
2023-04-11T05:43:48.347Z,10.73
2023-04-11T05:46:15.721Z,15.45
2023-04-11T05:48:42.611Z,14.55
2023-04-11T05:51:12.389Z,11.82
2023-04-11T05:53:39.450Z,15.35
2023-04-11T05:56:06.755Z,7.60
2023-04-11T05:58:35.040Z,10.88
2023-04-11T06:01:01.947Z,11.52
2023-04-11T06:03:28.963Z,10.35
2023-04-11T06:05:56.100Z,12.27
2023-04-11T06:08:35.052Z,10.27
2023-04-11T06:11:02.048Z,16.13
2023-04-11T06:13:28.951Z,13.63
2023-04-11T06:15:56.035Z,11.85
2023-04-11T06:18:22.856Z,9.80
2023-04-11T06:20:50.772Z,13.75
2023-04-11T06:23:17.841Z,15.20
2023-04-11T06:25:46.901Z,12.02
2023-04-11T06:28:14.331Z,14.27
2023-04-11T06:30:41.698Z,15.48
2023-04-11T06:33:08.554Z,16.20
2023-04-11T06:35:36.360Z,15.55
2023-04-11T06:38:05.781Z,20.05
2023-04-11T06:40:32.595Z,11.75
2023-04-11T06:43:00.952Z,21.95
2023-04-11T06:45:29.190Z,16.73
2023-04-11T06:47:56.014Z,16.73
2023-04-11T06:50:23.143Z,5.90
2023-04-11T06:52:51.394Z,14.55
2023-04-11T06:55:18.472Z,14.60
2023-04-11T06:57:45.312Z,17.77
2023-04-11T07:00:13.492Z,12.88
2023-04-11T07:02:41.056Z,18.95
2023-04-11T07:05:10.258Z,12.52
2023-04-11T07:07:37.475Z,12.13
2023-04-11T07:10:05.267Z,20.33
2023-04-11T07:12:32.131Z,10.27
2023-04-11T07:14:59.073Z,13.82
2023-04-11T07:17:26.126Z,19.30
2023-04-11T07:19:54.074Z,13.20
2023-04-11T07:22:20.902Z,16.65
2023-04-11T07:24:52.170Z,16.25
2023-04-11T07:27:19.479Z,12.20
2023-04-11T07:29:46.354Z,9.90
2023-04-11T07:32:13.180Z,15.95
2023-04-11T07:34:39.998Z,14.93
2023-04-11T07:37:07.175Z,16.40
2023-04-11T07:39:34.032Z,13.70
2023-04-11T07:42:01.898Z,12.00
2023-04-11T07:44:28.900Z,10.68
2023-04-11T07:46:55.970Z,12.15
2023-04-11T07:49:23.103Z,13.88
2023-04-11T07:51:50.144Z,12.93
2023-04-11T07:54:17.042Z,16.40
2023-04-11T07:56:43.833Z,14.07
2023-04-11T07:59:13.316Z,15.73
2023-04-11T08:01:40.348Z,17.65
2023-04-11T08:04:07.451Z,11.73
2023-04-11T08:06:35.935Z,11.55
2023-04-11T08:09:03.159Z,15.10
2023-04-11T08:11:30.014Z,15.73
2023-04-11T08:13:56.997Z,16.20
2023-04-11T08:16:24.118Z,11.23
2023-04-11T08:18:50.933Z,15.23
2023-04-11T08:21:17.725Z,16.88
2023-04-11T08:23:44.567Z,10.50
2023-04-11T08:26:12.894Z,13.82
2023-04-11T08:28:42.415Z,12.52
2023-04-11T08:31:10.764Z,8.38
2023-04-11T08:33:38.857Z,9.20
2023-04-11T08:36:09.922Z,10.15
2023-04-11T08:38:37.339Z,6.90
2023-04-11T08:41:04.257Z,12.18
2023-04-11T08:43:37.302Z,9.88
2023-04-11T08:46:05.405Z,9.57
2023-04-11T08:48:33.502Z,12.45
2023-04-11T08:51:00.417Z,10.77
2023-04-11T08:53:30.633Z,11.73
2023-04-11T08:55:57.873Z,11.05
2023-04-11T08:58:25.013Z,12.90
2023-04-11T09:00:55.450Z,10.05
2023-04-11T09:03:22.579Z,7.93
2023-04-11T09:05:49.810Z,13.20
2023-04-11T09:08:17.424Z,11.93
2023-04-11T09:10:45.885Z,8.48
2023-04-11T09:13:25.317Z,9.30
2023-04-11T09:16:09.674Z,10.52
2023-04-11T09:18:40.570Z,10.38
2023-04-11T09:21:12.135Z,13.45
2023-04-11T09:23:42.047Z,13.18
2023-04-11T09:26:10.622Z,7.65
2023-04-11T09:28:50.644Z,9.05
2023-04-11T09:31:17.584Z,10.20
2023-04-11T09:33:57.123Z,5.60
2023-04-11T09:36:27.134Z,9.60
2023-04-11T09:38:54.272Z,10.68
2023-04-11T09:41:32.310Z,9.75
2023-04-11T09:43:59.629Z,9.70
2023-04-11T09:46:26.534Z,9.63
2023-04-11T09:48:54.845Z,10.85
2023-04-11T09:51:34.323Z,12.68
2023-04-11T09:54:03.733Z,7.55
2023-04-11T09:56:31.979Z,9.82
2023-04-11T09:59:01.051Z,5.10
2023-04-11T10:01:28.362Z,8.43
2023-04-11T10:03:58.491Z,5.95
2023-04-11T10:06:34.965Z,9.30
2023-04-11T10:09:11.377Z,9.63
2023-04-11T10:11:44.770Z,8.55
2023-04-11T10:14:39.537Z,7.57
2023-04-11T10:17:24.165Z,3.65
2023-04-11T10:20:00.229Z,9.20
2023-04-11T10:22:44.936Z,8.73
2023-04-11T10:25:20.028Z,4.03
2023-04-11T10:27:53.792Z,5.03
2023-04-11T10:30:42.678Z,6.43
2023-04-11T10:33:11.773Z,6.00
2023-04-11T10:36:12.934Z,5.80
2023-04-11T10:38:48.883Z,8.55
2023-04-11T10:41:42.929Z,6.82
2023-04-11T10:44:20.866Z,9.68
2023-04-11T10:46:54.288Z,7.60
2023-04-11T10:49:39.980Z,6.30
2023-04-11T10:52:22.389Z,7.35
2023-04-11T10:54:54.068Z,6.55
2023-04-11T10:57:22.980Z,6.35
2023-04-11T10:59:50.147Z,6.05
2023-04-11T11:02:20.290Z,5.53
2023-04-11T11:04:48.775Z,5.15
2023-04-11T11:07:17.100Z,8.27
2023-04-11T11:09:51.562Z,6.43
2023-04-11T11:12:18.656Z,4.40
2023-04-11T11:14:47.445Z,7.00
2023-04-11T11:17:16.811Z,6.15
2023-04-11T11:19:48.565Z,8.57
2023-04-11T11:22:25.961Z,3.42
2023-04-11T11:24:53.266Z,7.60
2023-04-11T11:27:24.964Z,4.85
2023-04-11T11:29:53.181Z,7.05
2023-04-11T11:32:23.271Z,7.10
2023-04-11T11:34:50.203Z,11.23
2023-04-11T11:37:17.121Z,7.97
2023-04-11T11:39:48.454Z,7.97
2023-04-11T11:42:15.788Z,5.93
2023-04-11T11:44:49.968Z,7.63
2023-04-11T11:47:17.079Z,6.13
2023-04-11T11:49:48.221Z,8.70
2023-04-11T11:52:51.332Z,7.18
2023-04-11T11:55:18.311Z,9.88
2023-04-11T11:57:48.902Z,6.85
2023-04-11T12:00:24.504Z,8.43
2023-04-11T12:02:53.388Z,6.00
2023-04-11T12:05:20.764Z,8.43
2023-04-11T12:07:53.624Z,8.10
2023-04-11T12:10:41.060Z,7.20
2023-04-11T12:13:27.886Z,6.25
2023-04-11T12:15:56.963Z,9.45
2023-04-11T12:18:25.620Z,10.23
2023-04-11T12:20:53.363Z,7.05
2023-04-11T12:23:21.117Z,7.68
2023-04-11T12:25:48.287Z,9.55
2023-04-11T12:28:15.608Z,7.95
2023-04-11T12:30:42.553Z,8.45
2023-04-11T12:33:09.608Z,8.15
2023-04-11T12:35:36.586Z,6.40
2023-04-11T12:38:04.313Z,6.68
2023-04-11T12:40:31.352Z,4.53
2023-04-11T12:43:00.302Z,7.63
2023-04-11T12:45:27.244Z,8.07
2023-04-11T12:47:54.449Z,6.40
2023-04-11T12:50:23.636Z,7.40
2023-04-11T12:52:51.094Z,3.53
2023-04-11T12:55:31.124Z,6.03
2023-04-11T12:57:58.170Z,9.47
2023-04-11T13:00:25.657Z,7.97
2023-04-11T13:02:53.686Z,8.80
2023-04-11T13:05:22.318Z,9.60
2023-04-11T13:07:49.173Z,5.78
2023-04-11T13:10:16.699Z,9.00
2023-04-11T13:12:51.277Z,8.50
2023-04-11T13:15:18.372Z,9.98
2023-04-11T13:17:45.673Z,10.20
2023-04-11T13:20:13.199Z,6.55
2023-04-11T13:22:41.943Z,9.82
2023-04-11T13:25:10.757Z,6.60
2023-04-11T13:27:39.456Z,13.75
2023-04-11T13:30:07.729Z,9.65
2023-04-11T13:32:34.729Z,5.18
2023-04-11T13:35:02.089Z,10.07
2023-04-11T13:37:38.253Z,9.52
2023-04-11T13:40:10.892Z,5.05
2023-04-11T13:42:38.201Z,5.45
2023-04-11T13:45:05.512Z,5.63
2023-04-11T13:47:32.681Z,6.47
2023-04-11T13:49:59.527Z,5.78
2023-04-11T13:52:26.385Z,7.03
2023-04-11T13:54:53.406Z,9.88
2023-04-11T13:57:21.432Z,6.97
2023-04-11T13:59:48.421Z,5.07
2023-04-11T14:02:15.638Z,5.70
2023-04-11T14:04:52.436Z,4.13
2023-04-11T14:07:19.285Z,5.43
2023-04-11T14:09:47.964Z,7.25
2023-04-11T14:12:14.741Z,7.05
2023-04-11T14:14:43.972Z,8.55
2023-04-11T14:17:11.169Z,6.53
2023-04-11T14:19:38.130Z,5.40
2023-04-11T14:22:05.718Z,8.05
2023-04-11T14:24:32.831Z,9.35
2023-04-11T14:26:59.758Z,15.07
2023-04-11T14:29:28.299Z,8.63
2023-04-11T14:32:00.860Z,9.23
2023-04-11T14:34:28.763Z,5.97
2023-04-11T14:36:56.176Z,9.93
2023-04-11T14:39:23.486Z,8.50
2023-04-11T14:41:50.362Z,3.65
2023-04-11T14:44:17.291Z,4.65
2023-04-11T14:46:44.182Z,6.70
2023-04-11T14:49:11.851Z,6.18
2023-04-11T14:51:38.859Z,3.03
2023-04-11T14:54:05.716Z,3.15
2023-04-11T14:56:32.526Z,5.13
2023-04-11T14:58:59.352Z,5.10
2023-04-11T15:01:26.572Z,6.13
2023-04-11T15:03:57.404Z,3.35
2023-04-11T15:06:24.613Z,9.73
2023-04-11T15:08:52.913Z,6.45
2023-04-11T15:11:20.178Z,20.35
2023-04-11T15:13:48.379Z,6.68
2023-04-11T15:16:16.171Z,4.85
2023-04-11T15:18:43.855Z,9.32
2023-04-11T15:21:10.949Z,5.70
2023-04-11T15:23:38.388Z,7.70
2023-04-11T15:26:05.574Z,5.78
2023-04-11T15:28:37.776Z,4.60
2023-04-11T15:31:07.106Z,7.47
2023-04-11T15:33:34.405Z,7.57
2023-04-11T15:36:02.211Z,7.13
2023-04-11T15:38:29.155Z,4.35
2023-04-11T15:40:58.731Z,9.45
2023-04-11T15:43:26.411Z,7.25
2023-04-11T15:45:53.912Z,4.63
2023-04-11T15:48:21.290Z,8.32
2023-04-11T15:50:49.563Z,5.93
2023-04-11T15:53:16.604Z,7.80
2023-04-11T15:55:44.329Z,6.25
2023-04-11T15:58:11.276Z,5.22
2023-04-11T16:00:39.765Z,8.80
2023-04-11T16:03:08.782Z,5.93
2023-04-11T16:05:38.397Z,6.70
2023-04-11T16:08:06.003Z,5.72
2023-04-11T16:10:33.893Z,9.23
2023-04-11T16:13:02.066Z,6.25
2023-04-11T16:15:28.881Z,3.65
2023-04-11T16:17:55.941Z,5.53
2023-04-11T16:20:32.086Z,5.50
2023-04-11T16:22:59.012Z,4.50
2023-04-11T16:25:26.098Z,4.03
2023-04-11T16:27:54.377Z,3.50
2023-04-11T16:30:26.903Z,4.45
2023-04-11T16:32:54.382Z,6.07
2023-04-11T16:35:22.074Z,7.22
2023-04-11T16:37:49.770Z,10.27
2023-04-11T16:40:21.136Z,5.63
2023-04-11T16:45:18.162Z,4.60
2023-04-11T16:47:48.930Z,4.78
2023-04-11T16:50:20.281Z,6.45
2023-04-11T16:52:48.316Z,10.30
2023-04-11T16:55:18.084Z,16.33
2023-04-11T16:57:45.773Z,8.80
2023-04-11T17:00:33.324Z,10.07
2023-04-11T17:03:02.022Z,7.72
2023-04-11T17:05:30.820Z,8.15
2023-04-11T17:08:04.169Z,8.68
2023-04-11T17:10:32.210Z,10.48
2023-04-11T17:12:59.144Z,10.63
2023-04-11T17:15:31.409Z,8.23
2023-04-11T17:18:00.016Z,16.02
2023-04-11T17:20:29.012Z,7.30
2023-04-11T17:22:57.724Z,5.97
2023-04-11T17:25:30.048Z,8.75
2023-04-11T17:28:01.163Z,7.80
2023-04-11T17:30:32.202Z,7.93
2023-04-11T17:33:02.260Z,10.88
2023-04-11T17:35:32.396Z,5.97
2023-04-11T17:38:01.504Z,8.68
2023-04-11T17:40:30.573Z,9.85
2023-04-11T17:43:01.638Z,9.65
2023-04-11T17:45:30.220Z,9.43
2023-04-11T17:48:00.470Z,7.18
2023-04-11T17:50:29.078Z,7.78
2023-04-11T17:52:56.853Z,6.18
2023-04-11T17:55:25.828Z,5.22
2023-04-11T17:57:54.518Z,9.32
2023-04-11T18:00:23.930Z,10.63
2023-04-11T18:02:59.269Z,9.90
2023-04-11T18:05:31.278Z,10.48
2023-04-11T18:07:59.547Z,6.60
2023-04-11T18:10:38.396Z,7.25
2023-04-11T18:13:05.759Z,9.88
2023-04-11T18:15:34.859Z,6.95
2023-04-11T18:18:05.509Z,11.70
2023-04-11T18:20:32.381Z,7.57
2023-04-11T18:23:01.561Z,9.20
2023-04-11T18:25:30.083Z,9.82
2023-04-11T18:28:01.928Z,13.20
2023-04-11T18:30:30.486Z,10.32
2023-04-11T18:33:04.715Z,12.40
2023-04-11T18:35:31.802Z,11.15
2023-04-11T18:38:02.015Z,15.35
2023-04-11T18:40:30.105Z,10.50
2023-04-11T18:42:58.472Z,12.07
2023-04-11T18:45:36.776Z,13.55
2023-04-11T18:48:04.738Z,8.80
2023-04-11T18:50:41.662Z,8.32
2023-04-11T18:53:12.549Z,11.63
2023-04-11T18:55:41.357Z,15.20
2023-04-11T18:58:11.995Z,12.05
2023-04-11T19:00:43.760Z,8.23
2023-04-11T19:03:16.707Z,16.73
2023-04-11T19:08:26.130Z,9.38
2023-04-11T19:10:55.902Z,10.50
2023-04-11T19:13:23.803Z,8.68
2023-04-11T19:15:51.052Z,11.93
2023-04-11T19:18:18.137Z,9.13
2023-04-11T19:20:46.400Z,9.77
2023-04-11T19:23:13.383Z,10.32
2023-04-11T19:25:40.638Z,9.68
2023-04-11T19:28:07.787Z,13.43
2023-04-11T19:30:35.194Z,13.10
2023-04-11T19:33:02.396Z,9.48
2023-04-11T19:35:29.554Z,18.92
2023-04-11T19:37:57.483Z,12.55
2023-04-11T19:40:24.422Z,14.15
2023-04-11T19:42:51.733Z,9.68
2023-04-11T19:45:18.999Z,15.82
2023-04-11T19:47:46.928Z,10.52
2023-04-11T19:50:16.898Z,10.43
2023-04-11T19:52:44.952Z,14.90
2023-04-11T19:55:14.811Z,16.88
2023-04-11T19:57:43.736Z,6.38
2023-04-11T20:00:13.421Z,15.05
2023-04-11T20:02:45.244Z,9.18
2023-04-11T20:05:17.206Z,12.52
2023-04-11T20:07:45.348Z,13.75
2023-04-11T20:10:13.571Z,7.65
2023-04-11T20:12:41.186Z,12.10
2023-04-11T20:15:08.830Z,16.38
2023-04-11T20:17:37.371Z,14.73
2023-04-11T20:20:09.060Z,9.15
2023-04-11T20:22:38.518Z,8.52
2023-04-11T20:25:07.613Z,15.15
2023-04-11T20:27:34.754Z,12.82
2023-04-11T20:30:06.866Z,10.45
2023-04-11T20:32:33.892Z,9.07
2023-04-11T20:35:01.763Z,10.10
2023-04-11T20:37:31.763Z,8.85
2023-04-11T20:39:59.050Z,12.40
2023-04-11T20:42:27.988Z,10.07
2023-04-11T20:45:02.801Z,12.20
2023-04-11T20:47:29.727Z,11.15
2023-04-11T20:49:57.576Z,7.95
2023-04-11T20:52:24.672Z,8.80
2023-04-11T20:54:51.529Z,10.13
2023-04-11T20:57:18.632Z,6.90
2023-04-11T20:59:46.699Z,12.93
2023-04-11T21:02:13.578Z,11.85
2023-04-11T21:04:41.236Z,10.02
2023-04-11T21:07:08.330Z,9.20
2023-04-11T21:09:35.315Z,8.05
2023-04-11T21:12:02.754Z,8.15
2023-04-11T21:14:32.935Z,5.53
2023-04-11T21:17:00.061Z,15.43
2023-04-11T21:19:28.329Z,9.38
2023-04-11T21:21:57.236Z,7.45
2023-04-11T21:24:24.080Z,8.43
2023-04-11T21:26:51.332Z,10.10
2023-04-11T21:29:18.228Z,9.45
2023-04-11T21:31:45.170Z,7.18
2023-04-11T21:34:12.153Z,14.13
2023-04-11T21:36:39.579Z,14.55
2023-04-11T21:39:08.533Z,12.70
2023-04-11T21:41:35.633Z,11.05
2023-04-11T21:44:02.383Z,9.98
2023-04-11T21:46:29.585Z,7.60
2023-04-11T21:48:56.448Z,4.93
2023-04-11T21:51:23.718Z,6.97
2023-04-11T21:53:50.913Z,8.50
2023-04-11T21:56:17.766Z,10.77
2023-04-11T21:58:47.882Z,9.57
2023-04-11T22:01:16.240Z,8.50
2023-04-11T22:03:43.299Z,11.40
2023-04-11T22:06:11.163Z,11.80
2023-04-11T22:08:42.273Z,10.90
2023-04-11T22:11:10.396Z,7.28
2023-04-11T22:13:39.664Z,11.30
2023-04-11T22:16:07.820Z,11.27
2023-04-11T22:18:49.987Z,11.57
2023-04-11T22:21:23.209Z,13.77
2023-04-11T22:23:55.477Z,7.80
2023-04-11T22:26:34.191Z,9.10
2023-04-11T22:29:05.280Z,12.25
2023-04-11T22:31:34.475Z,16.60
2023-04-11T22:34:04.985Z,9.32
2023-04-11T22:36:35.962Z,11.13
2023-04-11T22:39:07.092Z,12.48
2023-04-11T22:41:35.416Z,10.73
2023-04-11T22:44:02.683Z,8.90
2023-04-11T22:46:31.482Z,11.77
2023-04-11T22:48:58.588Z,10.43
2023-04-11T22:51:30.218Z,8.55
2023-04-11T22:53:57.755Z,10.77
2023-04-11T22:56:24.997Z,14.73
2023-04-11T22:58:52.756Z,12.75
2023-04-11T23:01:20.922Z,7.15
2023-04-11T23:03:51.503Z,13.93
2023-04-11T23:06:18.507Z,7.27
2023-04-11T23:08:45.606Z,10.68
2023-04-11T23:11:12.794Z,12.82
2023-04-11T23:13:39.817Z,16.40
2023-04-11T23:16:09.381Z,7.50
2023-04-11T23:18:36.324Z,11.77
2023-04-11T23:21:03.699Z,7.07
2023-04-11T23:23:30.626Z,6.93
2023-04-11T23:25:58.798Z,8.88
2023-04-11T23:28:25.676Z,12.60
2023-04-11T23:30:52.798Z,8.82
2023-04-11T23:33:22.190Z,16.27
2023-04-11T23:35:49.227Z,10.32
2023-04-11T23:38:16.407Z,10.60
2023-04-11T23:40:43.335Z,14.77
2023-04-11T23:43:10.244Z,10.02
2023-04-11T23:45:37.339Z,7.53
2023-04-11T23:48:04.511Z,6.22
2023-04-11T23:50:31.517Z,9.23
2023-04-11T23:52:59.178Z,12.02
2023-04-11T23:55:26.814Z,15.90
2023-04-11T23:57:54.069Z,10.48
